Time;durP1;ratioP1;P1;durP2;ratioP2;P2;SDS_P1;SDS_P2;PMS_P1;PMS_P2;Temp;Humidity;BMP_temperature;BMP_pressure;BME280_temperature;BME280_humidity;BME280_pressure;Samples;Min_cycle;Max_cycle;Signal;HPM_P1;HPM_P2
2022/07/30 00:01:43;;;;;;;5.00;2.80;;;25.70;53.50;;;;;;220515;1267;23143;-59
2022/07/30 00:06:47;;;;;;;3.90;2.60;;;25.70;53.50;;;;;;220301;1268;24155;-58
2022/07/30 00:11:51;;;;;;;3.90;2.80;;;25.70;53.80;;;;;;220159;1268;24185;-59
2022/07/30 00:16:54;;;;;;;3.40;2.60;;;25.70;53.50;;;;;;220411;1268;22551;-60
2022/07/30 00:21:58;;;;;;;3.80;2.50;;;25.70;53.40;;;;;;220878;1267;22524;-60
2022/07/30 00:27:02;;;;;;;3.20;2.70;;;25.70;53.40;;;;;;220538;1267;25592;-58
2022/07/30 00:32:06;;;;;;;3.30;2.60;;;25.60;53.30;;;;;;220584;1267;24307;-59
2022/07/30 00:37:10;;;;;;;6.90;2.70;;;25.60;53.30;;;;;;220444;1267;22531;-60
2022/07/30 00:42:15;;;;;;;4.40;2.20;;;25.60;53.30;;;;;;220085;1268;24485;-63
2022/07/30 00:47:28;;;;;;;4.60;2.50;;;25.60;53.40;;;;;;220476;1268;22659;-62
2022/07/30 00:52:42;;;;;;;2.90;2.20;;;25.60;53.30;;;;;;220377;1268;25303;-59
2022/07/30 00:57:46;;;;;;;3.70;2.30;;;25.60;53.40;;;;;;220646;1267;23946;-60
2022/07/30 01:02:49;;;;;;;3.10;2.20;;;25.60;53.70;;;;;;220384;1270;25243;-59
2022/07/30 01:07:53;;;;;;;3.60;2.60;;;25.60;53.20;;;;;;220925;1267;23119;-59
2022/07/30 01:12:58;;;;;;;3.50;2.10;;;25.60;53.20;;;;;;220430;1267;24370;-61
2022/07/30 01:18:11;;;;;;;2.80;2.30;;;25.60;53.20;;;;;;220306;1267;22542;-60
2022/07/30 01:23:49;;;;;;;2.30;1.80;;;25.60;53.20;;;;;;220189;1267;22550;-60
2022/07/30 01:28:57;;;;;;;3.60;2.40;;;25.60;53.20;;;;;;220148;1269;22539;-60
2022/07/30 01:34:03;;;;;;;4.50;2.40;;;25.60;53.20;;;;;;220181;1268;320070;-59
2022/07/30 01:39:18;;;;;;;3.90;2.40;;;25.60;53.10;;;;;;220510;1267;25458;-58
2022/07/30 01:44:26;;;;;;;5.00;2.40;;;25.60;53.20;;;;;;220835;1267;23898;-60
2022/07/30 01:49:34;;;;;;;;;;;25.50;53.50;;;;;;220715;1267;24424;-60
2022/07/30 01:54:42;;;;;;;3.00;2.30;;;25.50;53.10;;;;;;220732;1267;22555;-61
2022/07/30 01:59:56;;;;;;;3.20;2.30;;;25.50;53.10;;;;;;220249;1268;24412;-63
2022/07/30 02:05:01;;;;;;;3.90;2.50;;;25.50;53.10;;;;;;220512;1267;25365;-59
2022/07/30 02:10:44;;;;;;;2.90;2.10;;;25.50;53.50;;;;;;220512;1268;22698;-62
2022/07/30 02:16:23;;;;;;;3.00;2.40;;;25.50;53.00;;;;;;220764;1267;22550;-57
2022/07/30 02:21:34;;;;;;;3.00;2.30;;;25.50;53.00;;;;;;220176;1267;22544;-60
2022/07/30 02:26:41;;;;;;;2.80;2.30;;;25.50;53.10;;;;;;220819;1268;22559;-61
2022/07/30 02:31:50;;;;;;;3.50;2.50;;;25.50;53.10;;;;;;220572;1267;23717;-63
2022/07/30 02:36:57;;;;;;;2.80;2.20;;;25.40;52.90;;;;;;220337;1268;22675;-60
2022/07/30 02:42:05;;;;;;;3.50;2.40;;;25.50;53.10;;;;;;220771;1267;23451;-59
2022/07/30 02:47:11;;;;;;;2.90;2.30;;;25.50;53.10;;;;;;220528;1267;25246;-61
2022/07/30 02:52:17;;;;;;;3.10;2.30;;;25.40;52.90;;;;;;220445;1268;22547;-61
2022/07/30 02:57:23;;;;;;;2.80;2.20;;;25.40;52.90;;;;;;220788;1267;25477;-59
2022/07/30 03:02:29;;;;;;;3.30;2.20;;;25.40;53.30;;;;;;220638;1267;22528;-59
2022/07/30 03:07:36;;;;;;;2.80;1.90;;;25.40;52.90;;;;;;220472;1268;22650;-60
2022/07/30 03:12:45;;;;;;;4.80;2.20;;;25.40;53.20;;;;;;220556;1267;22525;-63
2022/07/30 03:17:53;;;;;;;2.60;2.10;;;25.40;52.90;;;;;;220515;1267;22556;-62
2022/07/30 03:23:03;;;;;;;2.90;2.00;;;25.40;52.90;;;;;;220159;1267;24215;-60
2022/07/30 03:28:08;;;;;;;2.70;1.80;;;25.40;52.90;;;;;;220386;1268;25232;-60
2022/07/30 03:33:15;;;;;;;3.20;2.30;;;25.40;52.90;;;;;;220541;1267;24347;-62
2022/07/30 03:38:21;;;;;;;3.40;2.50;;;25.40;53.00;;;;;;220842;1267;22532;-60
2022/07/30 03:43:25;;;;;;;3.80;2.50;;;25.40;52.90;;;;;;220504;1268;25417;-59
2022/07/30 03:48:37;;;;;;;6.90;2.00;;;25.40;53.50;;;;;;220762;1267;22630;-60
2022/07/30 03:53:42;;;;;;;3.00;2.20;;;25.40;53.30;;;;;;220461;1267;22541;-59
2022/07/30 03:59:15;;;;;;;5.20;2.50;;;25.40;52.90;;;;;;219907;1267;24099;-62
2022/07/30 04:04:19;;;;;;;3.10;2.30;;;25.40;53.20;;;;;;220661;1267;24711;-61
2022/07/30 04:09:23;;;;;;;3.50;2.10;;;25.40;52.90;;;;;;220698;1267;22511;-60
2022/07/30 04:14:47;;;;;;;3.20;2.00;;;25.40;52.90;;;;;;220103;1268;23038;-61
2022/07/30 04:20:00;;;;;;;2.80;2.10;;;25.40;52.90;;;;;;220052;1268;22843;-60
2022/07/30 04:25:05;;;;;;;4.10;2.10;;;25.40;53.20;;;;;;220128;1267;23053;-61
2022/07/30 04:30:10;;;;;;;3.10;2.30;;;25.40;53.50;;;;;;220481;1267;22567;-59
2022/07/30 04:35:14;;;;;;;2.80;2.00;;;25.30;52.90;;;;;;220862;1267;22553;-61
2022/07/30 04:40:50;;;;;;;3.20;2.10;;;25.40;52.90;;;;;;220976;1267;22547;-59
2022/07/30 04:45:59;;;;;;;2.70;1.90;;;25.40;52.90;;;;;;220320;1267;23937;-59
2022/07/30 04:51:31;;;;;;;2.60;1.90;;;25.40;53.20;;;;;;220649;1267;24391;-60
2022/07/30 04:56:36;;;;;;;2.90;1.80;;;25.40;52.90;;;;;;220829;1267;24215;-62
2022/07/30 05:01:42;;;;;;;3.10;2.00;;;25.40;52.90;;;;;;220306;1270;24253;-60
2022/07/30 05:06:46;;;;;;;2.90;2.00;;;25.40;52.40;;;;;;220148;1269;22474;-60
2022/07/30 05:11:58;;;;;;;2.60;2.00;;;25.40;52.80;;;;;;220171;1267;22564;-60
2022/07/30 05:17:05;;;;;;;2.80;2.10;;;25.30;52.80;;;;;;220384;1267;22521;-63
2022/07/30 05:22:09;;;;;;;3.40;2.20;;;25.40;52.80;;;;;;220202;1268;25668;-60
2022/07/30 05:27:20;;;;;;;3.10;2.10;;;25.40;52.80;;;;;;220508;1268;25247;-61
2022/07/30 05:32:31;;;;;;;3.10;2.20;;;25.40;52.80;;;;;;220078;1268;24349;-61
2022/07/30 05:37:41;;;;;;;3.50;1.80;;;25.40;52.80;;;;;;220255;1267;22536;-59
2022/07/30 05:42:45;;;;;;;2.70;1.60;;;25.40;52.80;;;;;;220676;1267;22587;-60
2022/07/30 05:47:49;;;;;;;2.80;2.00;;;25.40;52.80;;;;;;220210;1268;23704;-62
2022/07/30 05:52:54;;;;;;;2.80;1.70;;;25.40;52.80;;;;;;220606;1269;22766;-60
2022/07/30 05:58:18;;;;;;;2.60;1.80;;;25.40;53.10;;;;;;220306;1267;22528;-59
2022/07/30 06:03:21;;;;;;;3.10;2.20;;;25.40;52.90;;;;;;220421;1268;22526;-59
2022/07/30 06:08:44;;;;;;;2.20;1.70;;;25.40;52.80;;;;;;220300;1267;24261;-59
2022/07/30 06:13:57;;;;;;;3.10;1.90;;;25.40;52.80;;;;;;220422;1268;24263;-60
2022/07/30 06:19:13;;;;;;;2.50;2.00;;;25.40;52.80;;;;;;220390;1270;24207;-62
2022/07/30 06:24:26;;;;;;;4.00;1.90;;;25.40;52.80;;;;;;221079;1267;25370;-59
2022/07/30 06:30:06;;;;;;;2.40;1.80;;;25.40;52.80;;;;;;220539;1268;25284;-60
2022/07/30 06:35:10;;;;;;;2.50;1.90;;;25.40;52.80;;;;;;220244;1270;22550;-60
2022/07/30 06:40:14;;;;;;;2.40;1.90;;;25.40;52.80;;;;;;220305;1270;22558;-62
2022/07/30 06:46:02;;;;;;;2.80;1.90;;;25.40;52.70;;;;;;220240;1269;25356;-58
2022/07/30 06:51:24;;;;;;;2.30;1.70;;;25.40;52.70;;;;;;220354;1268;22545;-61
2022/07/30 06:56:29;;;;;;;2.30;1.70;;;25.30;52.60;;;;;;220627;1268;22528;-60
2022/07/30 07:01:39;;;;;;;3.80;2.10;;;25.40;52.80;;;;;;220513;1270;24296;-60
2022/07/30 07:06:47;;;;;;;2.70;2.00;;;25.30;52.60;;;;;;220444;1268;22577;-62
2022/07/30 07:12:08;;;;;;;2.80;2.10;;;25.40;52.80;;;;;;220611;1267;22544;-62
2022/07/30 07:17:22;;;;;;;2.20;1.80;;;25.40;52.70;;;;;;220294;1270;25236;-59
2022/07/30 07:22:52;;;;;;;2.90;2.00;;;25.30;52.60;;;;;;220592;1270;22510;-60
2022/07/30 07:27:56;;;;;;;2.90;1.70;;;25.40;52.60;;;;;;220617;1267;22573;-60
2022/07/30 07:33:17;;;;;;;2.70;2.10;;;25.40;52.70;;;;;;220508;1268;22592;-55
2022/07/30 07:38:22;;;;;;;3.00;2.00;;;25.40;52.60;;;;;;220562;1270;22548;-60
2022/07/30 07:43:26;;;;;;;2.70;2.10;;;25.40;52.60;;;;;;221098;1267;24303;-59
2022/07/30 07:48:32;;;;;;;2.60;1.80;;;25.40;52.60;;;;;;220535;1267;22759;-59
2022/07/30 07:53:53;;;;;;;2.60;1.90;;;25.40;52.60;;;;;;220904;1267;23172;-62
2022/07/30 07:59:17;;;;;;;3.00;1.70;;;25.40;52.60;;;;;;220522;1270;22998;-61
2022/07/30 08:04:21;;;;;;;2.50;1.70;;;25.40;52.70;;;;;;220724;1270;22526;-57
2022/07/30 08:09:45;;;;;;;3.40;1.90;;;25.40;52.60;;;;;;220198;1267;22523;-61
2022/07/30 08:15:18;;;;;;;2.60;1.80;;;25.40;52.60;;;;;;220498;1270;24356;-63
2022/07/30 08:20:50;;;;;;;2.80;1.70;;;25.40;52.60;;;;;;220187;1268;22538;-61
2022/07/30 08:25:58;;;;;;;2.60;1.80;;;25.40;52.60;;;;;;220588;1267;24737;-59
2022/07/30 08:31:03;;;;;;;2.70;1.70;;;25.40;52.60;;;;;;220875;1267;22558;-59
2022/07/30 08:36:07;;;;;;;3.40;1.80;;;25.40;52.60;;;;;;220655;1267;22613;-59
2022/07/30 08:41:18;;;;;;;3.10;1.60;;;25.40;52.70;;;;;;220708;1267;24227;-61
2022/07/30 08:46:26;;;;;;;3.90;1.80;;;25.40;52.60;;;;;;220286;1270;22551;-60
2022/07/30 08:51:35;;;;;;;2.50;1.90;;;25.40;53.30;;;;;;220074;1269;22594;-59
2022/07/30 08:56:58;;;;;;;2.70;1.60;;;25.40;52.70;;;;;;221046;1267;24280;-60
2022/07/30 09:02:04;;;;;;;2.30;1.80;;;25.40;52.70;;;;;;220352;1268;22993;-61
2022/07/30 09:07:23;;;;;;;2.50;1.80;;;25.40;52.60;;;;;;220200;1270;22547;-60
2022/07/30 09:12:37;;;;;;;3.60;1.80;;;25.40;52.60;;;;;;220671;1267;22856;-60
2022/07/30 09:18:02;;;;;;;3.00;1.90;;;25.50;52.70;;;;;;220255;1268;22528;-61
2022/07/30 09:23:08;;;;;;;2.40;1.80;;;25.40;52.70;;;;;;220519;1267;22548;-61
2022/07/30 09:28:32;;;;;;;2.40;1.80;;;25.40;52.70;;;;;;220135;1270;22518;-61
2022/07/30 09:33:48;;;;;;;2.50;1.90;;;25.40;52.80;;;;;;220684;1267;22553;-60
2022/07/30 09:39:37;;;;;;;3.30;2.00;;;25.40;52.90;;;;;;220660;1267;25289;-61
2022/07/30 09:45:09;;;;;;;2.80;1.80;;;25.40;53.10;;;;;;220084;1270;22541;-63
2022/07/30 09:50:19;;;;;;;2.50;1.70;;;25.40;52.80;;;;;;220510;1267;25438;-62
2022/07/30 09:55:38;;;;;;;2.70;1.90;;;25.40;52.80;;;;;;220676;1267;24756;-61
2022/07/30 10:00:45;;;;;;;4.00;2.10;;;25.40;52.90;;;;;;220506;1268;22547;-63
2022/07/30 10:06:01;;;;;;;2.60;1.70;;;25.40;52.90;;;;;;220360;1270;24256;-59
2022/07/30 10:11:19;;;;;;;3.00;2.10;;;25.40;53.30;;;;;;220671;1267;22691;-60
2022/07/30 10:16:34;;;;;;;2.60;1.70;;;25.40;53.00;;;;;;220566;1270;23853;-59
2022/07/30 10:21:38;;;;;;;2.60;1.90;;;25.40;53.10;;;;;;220696;1268;22823;-59
2022/07/30 10:26:53;;;;;;;3.20;2.00;;;25.40;53.10;;;;;;220364;1267;24292;-59
2022/07/30 10:32:15;;;;;;;3.10;1.80;;;25.40;53.10;;;;;;220358;1269;22598;-60
2022/07/30 10:37:21;;;;;;;2.70;1.80;;;25.40;53.10;;;;;;220341;1271;22573;-61
2022/07/30 10:42:42;;;;;;;3.70;2.30;;;25.40;53.00;;;;;;220461;1270;22772;-59
2022/07/30 10:47:48;;;;;;;2.60;1.70;;;25.40;53.00;;;;;;220431;1267;24230;-61
2022/07/30 10:52:54;;;;;;;2.60;1.60;;;25.40;53.00;;;;;;220297;1270;22551;-61
2022/07/30 10:58:03;;;;;;;2.90;1.80;;;25.40;53.20;;;;;;220438;1270;24195;-58
2022/07/30 11:03:23;;;;;;;2.80;1.80;;;25.40;53.20;;;;;;220747;1267;23162;-60
2022/07/30 11:08:46;;;;;;;2.80;2.00;;;25.40;53.30;;;;;;220570;1267;25247;-60
2022/07/30 11:13:59;;;;;;;2.80;1.90;;;25.40;53.40;;;;;;220640;1267;24342;-59
2022/07/30 11:19:18;;;;;;;2.80;1.70;;;25.40;53.40;;;;;;220515;1270;22650;-61
2022/07/30 11:24:44;;;;;;;3.60;2.00;;;25.40;53.50;;;;;;220452;1267;22555;-60
2022/07/30 11:29:48;;;;;;;3.30;1.90;;;25.40;53.60;;;;;;220513;1267;22707;-61
2022/07/30 11:35:21;;;;;;;3.70;1.90;;;25.40;53.60;;;;;;220419;1267;24107;-61
2022/07/30 11:40:27;;;;;;;2.30;1.50;;;25.40;53.80;;;;;;220338;1267;22701;-63
2022/07/30 11:45:32;;;;;;;2.80;1.90;;;25.40;53.80;;;;;;220597;1267;22626;-60
2022/07/30 11:50:36;;;;;;;2.60;1.80;;;25.40;53.90;;;;;;220790;1267;23910;-60
2022/07/30 11:56:01;;;;;;;3.10;1.50;;;25.40;54.20;;;;;;220904;1268;22558;-59
2022/07/30 12:01:10;;;;;;;2.20;1.70;;;25.40;53.80;;;;;;220620;1267;24957;-61
2022/07/30 12:06:22;;;;;;;4.80;1.90;;;25.40;53.80;;;;;;220538;1268;24220;-62
2022/07/30 12:11:34;;;;;;;3.00;1.90;;;25.50;54.00;;;;;;221010;1268;25217;-59
2022/07/30 12:16:39;;;;;;;2.90;1.70;;;25.40;54.00;;;;;;220236;1270;22535;-60
2022/07/30 12:21:43;;;;;;;2.30;1.60;;;25.40;54.10;;;;;;220149;1271;25812;-59
2022/07/30 12:27:07;;;;;;;4.00;1.90;;;25.40;54.20;;;;;;220317;1271;22600;-60
2022/07/30 12:32:11;;;;;;;2.70;1.90;;;25.40;54.20;;;;;;220495;1267;24285;-60
2022/07/30 12:37:15;;;;;;;2.70;1.80;;;25.40;54.20;;;;;;220624;1267;24251;-64
2022/07/30 12:42:19;;;;;;;2.10;1.50;;;25.40;54.30;;;;;;220412;1270;23044;-62
2022/07/30 12:47:25;;;;;;;2.40;1.70;;;25.40;54.40;;;;;;220590;1267;22561;-60
2022/07/30 12:52:34;;;;;;;4.50;2.00;;;25.40;54.40;;;;;;220780;1267;23063;-61
2022/07/30 12:57:58;;;;;;;2.80;1.70;;;25.40;54.30;;;;;;220802;1270;22685;-61
2022/07/30 13:03:37;;;;;;;3.20;1.70;;;25.40;54.40;;;;;;220568;1267;22543;-62
2022/07/30 13:08:55;;;;;;;3.20;1.70;;;25.30;54.30;;;;;;220870;1267;24293;-58
2022/07/30 13:13:59;;;;;;;2.70;1.40;;;25.40;54.50;;;;;;220311;1268;23007;-59
2022/07/30 13:19:04;;;;;;;3.10;1.80;;;25.40;54.50;;;;;;220485;1270;24272;-59
2022/07/30 13:24:08;;;;;;;3.20;1.70;;;25.40;55.20;;;;;;220198;1270;22539;-60
2022/07/30 13:29:20;;;;;;;2.50;1.70;;;25.40;54.80;;;;;;220005;1268;25250;-61
2022/07/30 13:34:24;;;;;;;3.80;2.10;;;25.30;54.80;;;;;;220537;1270;297119;-59
2022/07/30 13:39:27;;;;;;;2.40;1.80;;;25.30;54.70;;;;;;220489;1267;22554;-60
2022/07/30 13:44:31;;;;;;;2.50;1.60;;;25.30;55.00;;;;;;220534;1268;24198;-58
2022/07/30 13:49:42;;;;;;;2.40;1.80;;;25.30;55.10;;;;;;220480;1268;22544;-60
2022/07/30 13:55:05;;;;;;;3.30;1.70;;;25.30;54.80;;;;;;220643;1269;24230;-62
2022/07/30 14:00:23;;;;;;;2.90;1.90;;;25.30;54.80;;;;;;220236;1269;23988;-59
2022/07/30 14:05:27;;;;;;;2.80;1.90;;;25.30;55.20;;;;;;220418;1268;24055;-59
2022/07/30 14:10:31;;;;;;;3.00;2.10;;;25.30;55.40;;;;;;220555;1271;22532;-60
2022/07/30 14:15:36;;;;;;;2.70;1.80;;;25.30;55.00;;;;;;220530;1268;22529;-60
2022/07/30 14:20:43;;;;;;;2.50;1.70;;;25.30;55.10;;;;;;220369;1268;23471;-60
2022/07/30 14:25:56;;;;;;;3.70;2.20;;;25.30;55.00;;;;;;220652;1268;23848;-60
2022/07/30 14:31:07;;;;;;;2.40;1.80;;;25.30;55.60;;;;;;220564;1268;24295;-59
2022/07/30 14:36:11;;;;;;;3.10;1.80;;;25.30;55.10;;;;;;220332;1272;22561;-64
2022/07/30 14:41:14;;;;;;;3.00;1.90;;;25.30;55.20;;;;;;220422;1268;24344;-63
2022/07/30 14:46:18;;;;;;;2.60;1.90;;;25.30;55.20;;;;;;220322;1268;25514;-61
2022/07/30 14:51:22;;;;;;;3.80;1.90;;;25.30;55.80;;;;;;220396;1271;23928;-60
2022/07/30 14:56:31;;;;;;;2.80;2.00;;;25.30;55.50;;;;;;220409;1268;24236;-60
2022/07/30 15:01:37;;;;;;;3.00;2.10;;;25.30;55.20;;;;;;220743;1268;25287;-57
2022/07/30 15:06:41;;;;;;;3.00;2.00;;;25.20;55.20;;;;;;220485;1268;25366;-60
2022/07/30 15:11:45;;;;;;;2.40;1.60;;;25.20;55.50;;;;;;220205;1271;25305;-63
2022/07/30 15:17:09;;;;;;;2.50;1.70;;;25.20;55.30;;;;;;220384;1268;22548;-62
2022/07/30 15:22:13;;;;;;;2.70;1.90;;;25.20;55.30;;;;;;220264;1268;23924;-60
2022/07/30 15:27:17;;;;;;;2.80;1.80;;;25.20;55.60;;;;;;220650;1268;22580;-61
2022/07/30 15:32:21;;;;;;;2.70;2.10;;;25.20;55.30;;;;;;220416;1269;25245;-60
2022/07/30 15:37:32;;;;;;;2.10;1.60;;;25.20;55.30;;;;;;220905;1270;24231;-60
2022/07/30 15:42:36;;;;;;;2.70;1.80;;;25.20;55.30;;;;;;220619;1268;24198;-61
2022/07/30 15:47:39;;;;;;;2.90;1.90;;;25.20;55.30;;;;;;220509;1268;22563;-61
2022/07/30 15:52:43;;;;;;;2.80;2.10;;;25.20;55.30;;;;;;220728;1270;22529;-61
2022/07/30 15:57:47;;;;;;;4.50;1.90;;;25.20;55.30;;;;;;220896;1268;24298;-56
2022/07/30 16:02:51;;;;;;;2.80;1.80;;;25.20;55.30;;;;;;220626;1270;22550;-57
